Time;durP1;ratioP1;P1;durP2;ratioP2;P2;SDS_P1;SDS_P2;PMS_P1;PMS_P2;Temp;Humidity;BMP_temperature;BMP_pressure;BME280_temperature;BME280_humidity;BME280_pressure;Samples;Min_cycle;Max_cycle;Signal;HPM_P1;HPM_P2
2022/06/12 00:01:47;;;;;;;1999.90;999.90;;;;;;;19.31;51.99;96041.28;5011553;28;20145;-68
2022/06/12 00:04:13;;;;;;;1999.90;999.90;;;;;;;19.34;51.94;96046.78;5011927;28;20029;-68
2022/06/12 00:06:38;;;;;;;1999.90;999.90;;;;;;;19.30;52.08;96037.03;5011550;28;20489;-68
2022/06/12 00:09:03;;;;;;;1999.90;999.90;;;;;;;19.26;52.11;96036.91;5013371;28;20037;-68
2022/06/12 00:11:29;;;;;;;1999.90;999.90;;;;;;;19.16;51.97;96034.66;5011516;28;20033;-68
2022/06/12 00:13:58;;;;;;;1999.90;999.90;;;;;;;19.18;52.53;96041.28;5013062;28;20022;-67
2022/06/12 00:16:24;;;;;;;1999.90;999.90;;;;;;;19.06;52.87;96022.41;5011393;28;20063;-68
2022/06/12 00:18:50;;;;;;;1999.90;999.90;;;;;;;19.13;52.82;96038.81;5012775;28;20048;-68
2022/06/12 00:21:16;;;;;;;1999.90;999.90;;;;;;;19.05;52.55;96034.31;5011220;28;20486;-68
2022/06/12 00:23:49;;;;;;;1999.90;999.90;;;;;;;19.06;52.90;96035.09;5012958;28;20032;-68
2022/06/12 00:26:24;;;;;;;1999.90;999.90;;;;;;;19.01;52.94;96041.50;5012880;28;20026;-68
2022/06/12 00:29:04;;;;;;;1999.90;999.90;;;;;;;19.02;52.83;96032.28;5012829;28;20030;-68
2022/06/12 00:31:31;;;;;;;1999.90;999.90;;;;;;;18.86;52.56;96015.97;5012269;28;20029;-68
2022/06/12 00:33:57;;;;;;;1999.90;999.90;;;;;;;18.91;53.29;96037.31;5012699;28;20044;-68
2022/06/12 00:36:22;;;;;;;1999.90;999.90;;;;;;;18.87;53.32;96030.25;5012626;28;20030;-68
2022/06/12 00:38:47;;;;;;;1999.90;999.90;;;;;;;18.92;53.26;96044.28;5011233;28;20092;-68
2022/06/12 00:41:13;;;;;;;1999.90;999.90;;;;;;;18.88;53.48;96035.28;5012102;28;20018;-68
2022/06/12 00:43:38;;;;;;;1999.90;999.90;;;;;;;18.88;53.28;96040.69;5012406;28;20080;-67
2022/06/12 00:46:05;;;;;;;1999.90;999.90;;;;;;;18.87;53.51;96038.34;5012325;28;20482;-68
2022/06/12 00:48:37;;;;;;;1999.90;999.90;;;;;;;18.89;53.37;96038.81;5012324;28;20021;-68
2022/06/12 00:51:06;;;;;;;;;;;;;;;18.87;53.59;96039.13;5011596;28;20419;-67
2022/06/12 00:53:50;;;;;;;1999.90;999.90;;;;;;;18.83;53.55;96024.72;5012476;28;19913;-68
2022/06/12 00:56:22;;;;;;;1999.90;999.90;;;;;;;18.75;53.92;96036.41;5012219;28;20030;-68
2022/06/12 00:58:55;;;;;;;1999.90;999.90;;;;;;;18.85;53.62;96043.28;5012286;28;20509;-68
2022/06/12 01:01:27;;;;;;;1999.90;999.90;;;;;;;18.83;53.55;96040.13;5010565;28;20450;-68
2022/06/12 01:06:37;;;;;;;1999.90;999.90;;;;;;;18.70;53.85;96025.84;5010449;28;20067;-68
2022/06/12 01:09:08;;;;;;;1999.90;999.90;;;;;;;18.60;53.95;96018.16;5010750;28;20475;-68
2022/06/12 01:11:35;;;;;;;1999.90;999.90;;;;;;;18.64;54.35;96022.56;5010582;28;20026;-68
2022/06/12 01:14:04;;;;;;;1999.90;999.90;;;;;;;18.61;54.37;96022.41;5010839;28;20124;-69
2022/06/12 01:16:30;;;;;;;1999.90;999.90;;;;;;;18.60;54.18;96016.25;5011486;28;20030;-68
2022/06/12 01:18:56;;;;;;;1999.90;999.90;;;;;;;18.50;54.08;95997.81;5011940;28;20033;-67
2022/06/12 01:21:36;;;;;;;1999.90;999.90;;;;;;;18.65;54.23;96029.50;5011540;28;20018;-67
2022/06/12 01:24:32;;;;;;;1999.90;999.90;;;;;;;18.64;54.47;96021.75;5011944;28;20072;-68
2022/06/12 01:27:42;;;;;;;1999.90;999.90;;;;;;;18.59;54.45;96025.47;5010251;28;20022;-68
2022/06/12 01:30:35;;;;;;;1999.90;999.90;;;;;;;18.53;54.87;96023.28;5011127;28;20037;-69
2022/06/12 01:33:32;;;;;;;1999.90;999.90;;;;;;;18.51;54.74;96025.53;5011575;28;20030;-68
2022/06/12 01:36:35;;;;;;;1999.90;999.90;;;;;;;18.49;54.82;96022.41;5009509;28;20034;-68
2022/06/12 01:39:17;;;;;;;1999.90;999.90;;;;;;;18.49;54.65;96017.78;5011478;28;20055;-69
2022/06/12 01:41:54;;;;;;;1999.90;999.90;;;;;;;18.50;54.63;96021.28;5011281;28;20030;-67
2022/06/12 01:44:44;;;;;;;1999.90;999.90;;;;;;;18.42;54.79;96015.63;5009950;28;20505;-68
2022/06/12 01:47:35;;;;;;;1999.90;999.90;;;;;;;18.38;54.68;96017.44;5009951;28;20443;-68
2022/06/12 01:50:10;;;;;;;1999.90;999.90;;;;;;;18.35;54.76;96010.00;4979519;28;20062;-68
2022/06/12 01:53:02;;;;;;;1999.90;999.90;;;;;;;18.37;54.85;96010.44;5010737;28;20036;-67
2022/06/12 01:55:37;;;;;;;;;;;;;;;18.05;54.82;95974.34;5009492;28;20041;-68
2022/06/12 01:58:28;;;;;;;1999.90;999.90;;;;;;;18.35;54.66;96001.13;5010370;28;20374;-68
2022/06/12 02:01:14;;;;;;;1999.90;999.90;;;;;;;18.36;54.68;96003.50;4974090;28;20044;-67
2022/06/12 02:03:48;;;;;;;1999.90;999.90;;;;;;;18.36;54.86;96000.81;5009059;28;20025;-68
2022/06/12 02:06:29;;;;;;;1999.90;999.90;;;;;;;18.22;55.02;95988.75;5009281;28;20104;-68
2022/06/12 02:09:13;;;;;;;1999.90;999.90;;;;;;;18.25;54.95;95993.47;5010035;28;20038;-68
2022/06/12 02:14:58;;;;;;;1999.90;999.90;;;;;;;18.17;55.37;95984.38;5010193;28;20032;-68
2022/06/12 02:17:32;;;;;;;1999.90;999.90;;;;;;;18.28;55.01;95996.31;5009514;28;20076;-68
2022/06/12 02:20:00;;;;;;;1999.90;999.90;;;;;;;18.22;55.06;95988.75;5009731;28;20724;-67
2022/06/12 02:22:28;;;;;;;1999.90;999.90;;;;;;;18.26;55.12;95985.06;5009796;28;20040;-68
2022/06/12 02:25:10;;;;;;;1999.90;999.90;;;;;;;18.27;55.11;95988.53;5009889;28;20026;-68
2022/06/12 02:27:58;;;;;;;;;;;;;;;18.33;54.89;95989.91;5008969;28;20029;-68
2022/06/12 02:30:27;;;;;;;1999.90;999.90;;;;;;;18.30;54.87;95988.66;5009496;28;19913;-67
2022/06/12 02:32:58;;;;;;;1999.90;999.90;;;;;;;18.32;54.90;95993.72;5008573;28;20048;-68
2022/06/12 02:35:30;;;;;;;1999.90;999.90;;;;;;;18.23;55.31;95984.97;5009836;28;20030;-68
2022/06/12 02:37:58;;;;;;;;;;;;;;;18.29;55.10;95989.00;5010212;28;20073;-70
2022/06/12 02:40:38;;;;;;;1999.90;999.90;;;;;;;18.22;55.01;95992.25;5008121;28;19921;-68
2022/06/12 02:43:10;;;;;;;1999.90;999.90;;;;;;;18.26;55.01;95993.13;5008424;28;20493;-68
2022/06/12 02:45:51;;;;;;;1999.90;999.90;;;;;;;18.21;55.03;95993.34;5009623;28;20029;-67
2022/06/12 02:48:17;;;;;;;1999.90;999.90;;;;;;;18.23;55.01;95990.34;5009465;28;20034;-68
2022/06/12 02:51:02;;;;;;;1999.90;999.90;;;;;;;18.14;55.01;95987.72;5009209;28;20049;-68
2022/06/12 02:53:36;;;;;;;1999.90;999.90;;;;;;;18.17;55.23;95995.94;4960924;28;1374312;-68
2022/06/12 02:56:25;;;;;;;1999.90;999.90;;;;;;;18.08;55.19;95973.69;5009097;28;20419;-68
2022/06/12 02:59:01;;;;;;;1999.90;999.90;;;;;;;18.18;55.00;95985.94;5008801;28;20467;-68
2022/06/12 03:02:19;;;;;;;1999.90;999.90;;;;;;;18.11;55.35;95983.00;5008533;28;20038;-68
2022/06/12 03:05:02;;;;;;;1999.90;999.90;;;;;;;18.06;55.65;95981.28;4965634;28;20442;-68
2022/06/12 03:07:30;;;;;;;1999.90;999.90;;;;;;;18.18;55.23;95985.94;5008568;28;20032;-68
2022/06/12 03:09:59;;;;;;;1999.90;999.90;;;;;;;18.19;55.41;95993.69;5008417;28;20025;-67
2022/06/12 03:12:28;;;;;;;1999.90;999.90;;;;;;;18.01;55.54;95973.41;5009854;28;20489;-68
2022/06/12 03:14:54;;;;;;;1999.90;999.90;;;;;;;18.17;55.66;96001.31;5009908;28;20469;-68
2022/06/12 03:17:20;;;;;;;1999.90;999.90;;;;;;;18.14;55.37;95991.19;5009774;28;20076;-69
2022/06/12 03:19:51;;;;;;;1999.90;999.90;;;;;;;18.23;55.35;95999.19;5010234;28;20029;-68
2022/06/12 03:22:31;;;;;;;1999.90;999.90;;;;;;;18.29;55.33;96005.16;5009753;28;20089;-68
2022/06/12 03:25:15;;;;;;;1999.90;999.90;;;;;;;18.29;55.22;96007.84;5010005;28;20056;-68
2022/06/12 03:28:09;;;;;;;1999.90;999.90;;;;;;;18.36;55.09;96005.41;5009965;28;20389;-69
2022/06/12 03:30:50;;;;;;;1999.90;999.90;;;;;;;18.41;54.82;96010.59;5011843;28;20018;-68
2022/06/12 03:33:27;;;;;;;1999.90;999.90;;;;;;;18.38;54.91;96003.97;5012719;28;20025;-68
2022/06/12 03:36:03;;;;;;;1999.90;999.90;;;;;;;18.43;54.75;96006.44;5012444;28;20104;-67
2022/06/12 03:38:36;;;;;;;1999.90;999.90;;;;;;;18.49;54.71;96009.72;5012303;28;20338;-68
2022/06/12 03:41:20;;;;;;;1999.90;999.90;;;;;;;18.56;54.38;96023.41;5013476;28;20030;-67
2022/06/12 03:44:36;;;;;;;1999.90;999.90;;;;;;;18.61;54.46;96012.44;5013836;28;20030;-68
2022/06/12 03:47:15;;;;;;;1999.90;999.90;;;;;;;18.67;54.23;96019.16;4954846;28;20467;-68
2022/06/12 03:49:51;;;;;;;1999.90;999.90;;;;;;;18.75;53.89;96020.25;5012438;28;20084;-68
2022/06/12 03:52:29;;;;;;;1999.90;999.90;;;;;;;18.75;53.99;96014.84;5013333;28;20026;-67
2022/06/12 03:54:54;;;;;;;1999.90;999.90;;;;;;;18.91;53.58;96018.47;5013602;28;20390;-68
2022/06/12 03:57:52;;;;;;;1999.90;999.90;;;;;;;18.97;53.42;96016.31;5013344;28;20028;-67
2022/06/12 04:00:24;;;;;;;1999.90;999.90;;;;;;;19.00;53.39;96012.97;5012981;28;20437;-68
2022/06/12 04:02:55;;;;;;;1999.90;999.90;;;;;;;19.35;52.73;96015.22;5013294;28;20030;-70
2022/06/12 04:05:25;;;;;;;1999.90;999.90;;;;;;;19.76;52.01;96016.88;5013284;28;20429;-67
2022/06/12 04:07:54;;;;;;;1999.90;999.90;;;;;;;20.15;51.21;96006.38;5012964;28;20034;-68
2022/06/12 04:10:24;;;;;;;1999.90;999.90;;;;;;;20.61;50.14;96013.06;5012666;28;20030;-68
2022/06/12 04:12:50;;;;;;;1999.90;999.90;;;;;;;20.99;49.31;96011.69;5013126;28;20045;-68
2022/06/12 04:15:28;;;;;;;1999.90;999.90;;;;;;;21.40;48.17;96015.00;5013080;28;20038;-68
2022/06/12 04:17:55;;;;;;;1999.90;999.90;;;;;;;21.68;47.31;96009.44;5013006;28;20026;-68
2022/06/12 04:20:38;;;;;;;1999.90;999.90;;;;;;;21.94;46.75;96011.53;5012354;28;20032;-68
2022/06/12 04:23:09;;;;;;;1999.90;999.90;;;;;;;22.24;46.25;96017.97;5013050;28;20026;-68
2022/06/12 04:25:41;;;;;;;1999.90;999.90;;;;;;;22.49;45.49;96010.31;5012988;28;20052;-68
2022/06/12 04:28:34;;;;;;;1999.90;999.90;;;;;;;22.77;44.83;96020.88;5012866;28;20030;-68
2022/06/12 04:31:03;;;;;;;1999.90;999.90;;;;;;;23.07;44.15;96015.59;5012386;28;20037;-68
2022/06/12 04:33:37;;;;;;;1999.90;999.90;;;;;;;23.32;43.82;96009.78;5012702;28;20080;-68
2022/06/12 04:36:04;;;;;;;1999.90;999.90;;;;;;;23.52;43.04;96002.34;5012730;28;20096;-68
2022/06/12 04:38:31;;;;;;;1999.90;999.90;;;;;;;23.61;42.29;95992.78;5012496;28;20494;-68
2022/06/12 04:40:57;;;;;;;1999.90;999.90;;;;;;;23.79;42.07;95992.25;5012168;28;20030;-68
2022/06/12 04:43:23;;;;;;;1999.90;999.90;;;;;;;23.94;41.89;96002.16;5012683;28;20660;-68
2022/06/12 04:45:49;;;;;;;1999.90;999.90;;;;;;;24.11;41.93;95995.38;5012392;28;20038;-68
2022/06/12 04:48:35;;;;;;;1999.90;999.90;;;;;;;24.22;41.80;95996.28;5012361;28;20541;-68
2022/06/12 04:51:01;;;;;;;1999.90;999.90;;;;;;;24.37;41.61;95994.53;5012234;28;20116;-68
2022/06/12 04:53:26;;;;;;;1999.90;999.90;;;;;;;24.52;40.69;95995.47;5012450;28;20026;-68
2022/06/12 04:55:52;;;;;;;1999.90;999.90;;;;;;;24.65;40.59;95988.59;5012194;28;20364;-68
2022/06/12 04:58:17;;;;;;;1999.90;999.90;;;;;;;24.78;40.42;95978.25;5012280;28;20659;-68
2022/06/12 05:00:43;;;;;;;1999.90;999.90;;;;;;;24.97;40.19;95994.31;5011901;28;20017;-68
2022/06/12 05:03:09;;;;;;;1999.90;999.90;;;;;;;24.99;39.93;95988.53;5012333;28;20021;-68
2022/06/12 05:05:34;;;;;;;1999.90;999.90;;;;;;;24.94;41.07;95986.94;5012158;28;20018;-68
2022/06/12 05:07:59;;;;;;;1999.90;999.90;;;;;;;25.01;39.79;95989.69;5012056;28;20510;-69
2022/06/12 05:10:25;;;;;;;1999.90;999.90;;;;;;;24.95;39.69;95974.88;5011598;28;20026;-69
2022/06/12 05:12:50;;;;;;;1999.90;999.90;;;;;;;25.01;39.79;95980.75;5011990;28;20118;-68
2022/06/12 05:15:15;;;;;;;1999.90;999.90;;;;;;;25.11;39.85;95994.47;5011852;28;20029;-68
2022/06/12 05:17:44;;;;;;;1999.90;999.90;;;;;;;25.02;39.25;95995.91;5011806;28;20105;-68
2022/06/12 05:20:26;;;;;;;1999.90;999.90;;;;;;;25.06;39.77;95988.56;5011445;28;20026;-68
2022/06/12 05:22:51;;;;;;;1999.90;999.90;;;;;;;25.12;39.39;95985.13;5011669;28;20018;-68
2022/06/12 05:25:17;;;;;;;1999.90;999.90;;;;;;;25.18;39.49;95988.28;5011984;28;20030;-68
2022/06/12 05:27:45;;;;;;;1999.90;999.90;;;;;;;25.28;39.84;95982.16;5011694;28;20045;-68
2022/06/12 05:30:17;;;;;;;1999.90;999.90;;;;;;;25.40;39.58;95986.53;5011382;28;20705;-68
2022/06/12 05:32:44;;;;;;;1999.90;999.90;;;;;;;25.34;39.45;95979.88;5011673;28;20034;-68
2022/06/12 05:35:10;;;;;;;1999.90;999.90;;;;;;;25.48;39.14;95995.50;5010151;28;20045;-68
2022/06/12 05:37:36;;;;;;;1999.90;999.90;;;;;;;25.52;39.28;95983.47;5011800;28;20094;-68
2022/06/12 05:40:03;;;;;;;1999.90;999.90;;;;;;;25.67;39.28;95992.53;5009922;28;20433;-68
2022/06/12 05:42:28;;;;;;;1999.90;999.90;;;;;;;25.70;39.40;95969.19;5011441;28;20026;-68
2022/06/12 05:44:54;;;;;;;1999.90;999.90;;;;;;;25.71;39.26;95985.16;5010039;28;20029;-68
2022/06/12 05:47:19;;;;;;;1999.90;999.90;;;;;;;25.83;39.34;95994.97;5011313;28;20396;-68
2022/06/12 05:49:44;;;;;;;1999.90;999.90;;;;;;;25.79;39.55;95997.66;5011490;28;20034;-70
2022/06/12 05:52:10;;;;;;;1999.90;999.90;;;;;;;25.78;39.73;95971.59;5010101;28;20026;-69
2022/06/12 05:54:35;;;;;;;1999.90;999.90;;;;;;;25.92;39.19;95993.47;5009681;28;20112;-68
2022/06/12 05:57:01;;;;;;;1999.90;999.90;;;;;;;25.90;39.13;95982.16;5011004;28;20037;-68
2022/06/12 05:59:26;;;;;;;1999.90;999.90;;;;;;;25.96;39.22;95979.84;5011157;28;20112;-68
2022/06/12 06:01:51;;;;;;;1999.90;999.90;;;;;;;26.00;39.20;95988.03;5009362;28;20157;-69
2022/06/12 06:04:17;;;;;;;1999.90;999.90;;;;;;;25.97;39.58;95991.53;5009722;28;20095;-69
2022/06/12 06:06:46;;;;;;;1999.90;999.90;;;;;;;25.87;39.32;95974.75;5009515;28;20030;-68
2022/06/12 06:09:12;;;;;;;1999.90;999.90;;;;;;;25.89;39.25;95993.44;5010805;28;20383;-68
2022/06/12 06:11:39;;;;;;;1999.90;999.90;;;;;;;25.90;39.14;95995.78;5009156;28;20040;-69
2022/06/12 06:14:06;;;;;;;1999.90;999.90;;;;;;;25.86;39.09;95975.13;5010833;28;20022;-68
2022/06/12 06:16:33;;;;;;;1999.90;999.90;;;;;;;25.71;38.66;95976.97;5010312;28;20589;-68
2022/06/12 06:18:58;;;;;;;1999.90;999.90;;;;;;;25.76;39.05;95984.03;5009470;28;20026;-68
2022/06/12 06:21:24;;;;;;;1999.90;999.90;;;;;;;25.88;39.32;95986.44;5008963;28;20029;-69
2022/06/12 06:23:49;;;;;;;1999.90;999.90;;;;;;;25.96;39.05;95989.97;5009374;28;20077;-68
2022/06/12 06:26:16;;;;;;;1999.90;999.90;;;;;;;25.82;38.69;95968.88;5010549;28;20026;-69
2022/06/12 06:28:42;;;;;;;1999.90;999.90;;;;;;;26.10;38.76;95988.09;5009136;28;20022;-69
2022/06/12 06:31:08;;;;;;;1999.90;999.90;;;;;;;26.18;38.23;95999.81;5008864;28;20030;-69
2022/06/12 06:33:34;;;;;;;1999.90;999.90;;;;;;;26.26;38.55;95995.13;5010474;28;20429;-68
2022/06/12 06:35:59;;;;;;;1999.90;999.90;;;;;;;26.23;38.74;95993.97;5010322;28;20034;-68
2022/06/12 06:38:24;;;;;;;1999.90;999.90;;;;;;;26.25;38.88;95997.09;5009058;28;20438;-69
2022/06/12 06:40:50;;;;;;;1999.90;999.90;;;;;;;26.30;38.87;95996.72;5009892;28;20075;-68
2022/06/12 06:43:15;;;;;;;1999.90;999.90;;;;;;;26.39;39.13;95988.19;5008898;28;20107;-69
2022/06/12 06:48:26;;;;;;;1999.90;999.90;;;;;;;26.63;38.78;95994.91;5010724;28;20028;-69
2022/06/12 06:50:52;;;;;;;1999.90;999.90;;;;;;;26.67;38.69;95979.31;5008492;28;20061;-68
2022/06/12 06:53:17;;;;;;;1999.90;999.90;;;;;;;26.81;38.87;95990.22;5009771;28;20038;-68
2022/06/12 06:55:43;;;;;;;1999.90;999.90;;;;;;;26.91;38.95;96002.31;5009757;28;20029;-69
2022/06/12 06:58:16;;;;;;;1999.90;999.90;;;;;;;26.99;39.35;96003.91;5008901;28;20026;-68
2022/06/12 07:00:44;;;;;;;1999.90;999.90;;;;;;;26.95;38.50;95989.47;5006051;28;20030;-68
2022/06/12 07:03:10;;;;;;;1999.90;999.90;;;;;;;27.04;37.66;96000.78;5009624;28;20497;-69
2022/06/12 07:05:36;;;;;;;1999.90;999.90;;;;;;;26.76;38.84;95998.81;5008055;28;20455;-69
2022/06/12 07:08:02;;;;;;;1999.90;999.90;;;;;;;27.04;38.40;95989.88;5009784;28;20625;-69
2022/06/12 07:10:29;;;;;;;1999.90;999.90;;;;;;;27.02;37.41;95986.72;5009355;28;20026;-69
2022/06/12 07:12:56;;;;;;;1999.90;999.90;;;;;;;27.04;36.35;95998.06;5008808;28;20030;-69
2022/06/12 07:15:23;;;;;;;1999.90;999.90;;;;;;;27.06;36.22;96003.91;5009834;28;20108;-69
2022/06/12 07:17:49;;;;;;;1999.90;999.90;;;;;;;27.03;35.91;95993.00;5010085;28;20056;-69
2022/06/12 07:20:17;;;;;;;1999.90;999.90;;;;;;;27.09;36.20;95981.31;5009799;28;20117;-69
2022/06/12 07:22:43;;;;;;;1999.90;999.90;;;;;;;27.35;36.65;96001.19;5009962;28;20026;-69
2022/06/12 07:25:11;;;;;;;1999.90;999.90;;;;;;;27.23;36.34;95996.13;5009987;28;20493;-69
2022/06/12 07:27:38;;;;;;;1999.90;999.90;;;;;;;27.09;35.99;95980.53;5008585;28;20049;-68
2022/06/12 07:30:05;;;;;;;1999.90;999.90;;;;;;;27.40;35.72;95995.34;5009455;28;20097;-69
2022/06/12 07:32:30;;;;;;;1999.90;999.90;;;;;;;26.70;35.98;95992.94;5009744;28;20701;-69
2022/06/12 07:34:55;;;;;;;1999.90;999.90;;;;;;;26.29;36.39;95994.38;5008444;28;20033;-69
2022/06/12 07:37:21;;;;;;;1999.90;999.90;;;;;;;26.69;35.41;95998.81;5008220;28;20100;-68
2022/06/12 07:39:46;;;;;;;1999.90;999.90;;;;;;;27.29;34.34;95987.16;5009825;28;20109;-69
2022/06/12 07:42:12;;;;;;;1999.90;999.90;;;;;;;27.64;34.53;95997.25;5009199;28;20030;-69
2022/06/12 07:44:37;;;;;;;1999.90;999.90;;;;;;;27.76;34.78;95979.69;5009724;28;20572;-69
2022/06/12 07:47:03;;;;;;;1999.90;999.90;;;;;;;27.93;34.62;95987.03;5009611;28;20053;-69
2022/06/12 07:49:30;;;;;;;1999.90;999.90;;;;;;;26.92;32.94;95991.03;5009258;28;20386;-69
2022/06/12 07:51:58;;;;;;;1999.90;999.90;;;;;;;26.73;32.82;95985.16;5009007;28;20037;-69
2022/06/12 07:54:24;;;;;;;1999.90;999.90;;;;;;;26.56;32.37;95983.94;5009315;28;20036;-69
2022/06/12 07:56:50;;;;;;;1999.90;999.90;;;;;;;26.75;31.37;95989.06;5009340;28;20029;-69
2022/06/12 07:59:16;;;;;;;1999.90;999.90;;;;;;;26.81;32.11;95984.78;5008354;28;20033;-69
2022/06/12 08:01:42;;;;;;;1999.90;999.90;;;;;;;27.18;32.54;95987.16;5008743;28;20025;-69
2022/06/12 08:04:08;;;;;;;1999.90;999.90;;;;;;;26.98;29.93;95990.66;5008296;28;20064;-67
2022/06/12 08:06:34;;;;;;;1999.90;999.90;;;;;;;26.82;31.34;96004.66;5009270;28;20049;-69
2022/06/12 08:09:00;;;;;;;1999.90;999.90;;;;;;;26.89;29.55;95988.31;5009056;28;20548;-68
2022/06/12 08:11:26;;;;;;;1999.90;999.90;;;;;;;27.41;29.77;95994.94;5009143;28;20033;-68
2022/06/12 08:13:52;;;;;;;1999.90;999.90;;;;;;;27.30;30.76;95999.66;5008147;28;20060;-67
2022/06/12 08:16:19;;;;;;;1999.90;999.90;;;;;;;27.83;30.33;95996.06;5011878;28;20057;-69
2022/06/12 08:18:44;;;;;;;1999.90;999.90;;;;;;;26.94;29.53;95991.41;5012601;28;20104;-69
2022/06/12 08:21:13;;;;;;;1999.90;999.90;;;;;;;26.86;29.94;95991.78;5012300;28;20121;-70
2022/06/12 08:23:44;;;;;;;1999.90;999.90;;;;;;;26.49;28.35;95998.38;5012987;28;20029;-67
2022/06/12 08:26:11;;;;;;;;;;;;;;;27.01;29.14;95989.84;5011839;28;20032;-68
2022/06/12 08:28:46;;;;;;;1999.90;999.90;;;;;;;27.52;29.18;95996.88;5011412;28;19920;-68
2022/06/12 08:31:18;;;;;;;1999.90;999.90;;;;;;;26.95;29.04;95992.19;5005099;28;20050;-68
2022/06/12 08:33:47;;;;;;;1999.90;999.90;;;;;;;27.72;29.00;96000.78;5012725;28;20025;-67
2022/06/12 08:36:15;;;;;;;1999.90;999.90;;;;;;;27.25;28.22;95994.56;5012151;28;20034;-70
2022/06/12 08:38:41;;;;;;;1999.90;999.90;;;;;;;27.27;30.86;95999.63;5011121;28;20049;-68
2022/06/12 08:41:38;;;;;;;1999.90;999.90;;;;;;;27.72;29.77;95995.31;5012184;28;20054;-70
2022/06/12 08:44:21;;;;;;;1999.90;999.90;;;;;;;27.95;27.77;95979.22;5012391;28;20065;-67
2022/06/12 08:47:16;;;;;;;1999.90;999.90;;;;;;;27.91;26.56;95978.47;5012364;28;20032;-68
2022/06/12 08:49:50;;;;;;;1999.90;999.90;;;;;;;28.09;27.83;95963.94;5012291;28;20478;-69
2022/06/12 08:52:38;;;;;;;1999.90;999.90;;;;;;;28.33;27.84;95971.28;5010446;28;20022;-68
2022/06/12 08:55:25;;;;;;;1999.90;999.90;;;;;;;27.56;29.20;95971.13;4997052;28;20070;-67
2022/06/12 08:58:16;;;;;;;1999.90;999.90;;;;;;;27.95;27.57;95976.50;5010884;28;20490;-69
2022/06/12 09:00:44;;;;;;;1999.90;999.90;;;;;;;27.61;28.21;95975.41;5010459;28;20030;-68
2022/06/12 09:03:14;;;;;;;1999.90;999.90;;;;;;;27.05;29.55;95977.00;5011150;28;20468;-73
2022/06/12 09:06:01;;;;;;;1999.90;999.90;;;;;;;27.42;29.47;95968.41;5010850;28;20030;-69
2022/06/12 09:08:38;;;;;;;1999.90;999.90;;;;;;;27.53;29.24;95965.66;5010799;28;20062;-69
2022/06/12 09:11:14;;;;;;;1999.90;999.90;;;;;;;27.58;28.88;95963.28;5010346;28;20030;-69
2022/06/12 09:13:49;;;;;;;1999.90;999.90;;;;;;;27.95;29.25;95965.56;5012020;28;20033;-67
2022/06/12 09:16:26;;;;;;;1999.90;999.90;;;;;;;27.84;29.17;95953.88;5010352;28;20157;-67
2022/06/12 09:19:03;;;;;;;1999.90;999.90;;;;;;;27.15;29.95;95963.38;5011871;28;20034;-67
2022/06/12 09:21:40;;;;;;;1999.90;999.90;;;;;;;27.50;28.20;95955.50;5010214;28;20061;-68
2022/06/12 09:24:24;;;;;;;1999.90;999.90;;;;;;;27.73;28.30;95958.59;5011571;28;20032;-67
2022/06/12 09:27:14;;;;;;;1999.90;999.90;;;;;;;28.54;28.20;95958.66;5009364;28;20076;-67
2022/06/12 09:29:55;;;;;;;1999.90;999.90;;;;;;;28.14;27.62;95952.56;5011626;28;20026;-67
2022/06/12 09:32:38;;;;;;;1999.90;999.90;;;;;;;28.68;26.39;95955.81;5010359;28;20083;-67
2022/06/12 09:35:24;;;;;;;1999.90;999.90;;;;;;;28.21;27.05;95949.81;5011451;28;20040;-67
2022/06/12 09:38:20;;;;;;;1999.90;999.90;;;;;;;27.82;26.44;95949.97;5010207;28;20026;-68
2022/06/12 09:41:00;;;;;;;1999.90;999.90;;;;;;;28.09;27.24;95950.25;5009574;28;20112;-67
2022/06/12 09:43:46;;;;;;;1999.90;999.90;;;;;;;28.33;26.46;95948.56;5011377;28;20026;-67
2022/06/12 09:46:29;;;;;;;1999.90;999.90;;;;;;;28.94;26.38;95944.31;5011174;28;20033;-68
2022/06/12 09:49:10;;;;;;;1999.90;999.90;;;;;;;29.11;26.26;95933.59;5009874;28;20105;-67
2022/06/12 09:51:54;;;;;;;1999.90;999.90;;;;;;;28.50;26.96;95948.50;5009613;28;20046;-67
2022/06/12 09:54:38;;;;;;;1999.90;999.90;;;;;;;27.81;26.52;95949.22;5011014;28;20033;-67
2022/06/12 09:57:07;;;;;;;1999.90;999.90;;;;;;;27.84;28.07;95936.69;5009560;28;20548;-67
2022/06/12 10:00:21;;;;;;;1999.90;999.90;;;;;;;27.96;26.17;95930.78;5011033;28;20037;-69
2022/06/12 10:02:59;;;;;;;1999.90;999.90;;;;;;;28.21;27.65;95925.97;5009144;28;20033;-67
2022/06/12 10:05:53;;;;;;;1999.90;999.90;;;;;;;28.42;25.88;95921.59;5009605;28;20037;-67
2022/06/12 10:08:49;;;;;;;1999.90;999.90;;;;;;;28.97;24.62;95923.53;5009471;28;20072;-67
2022/06/12 10:11:20;;;;;;;1999.90;999.90;;;;;;;29.29;24.71;95914.25;5010546;28;20053;-67
2022/06/12 10:13:57;;;;;;;;;;;;;;;29.42;24.57;95910.56;5011345;28;20497;-68
2022/06/12 10:16:59;;;;;;;1999.90;999.90;;;;;;;29.57;24.73;95902.25;5010270;28;19983;-71
2022/06/12 10:19:24;;;;;;;;;;;;;;;29.42;24.94;95899.63;5011051;28;20480;-70
2022/06/12 10:21:53;;;;;;;1999.90;999.90;;;;;;;29.03;25.76;95902.00;5009134;28;19963;-70
2022/06/12 10:24:20;;;;;;;1999.90;999.90;;;;;;;29.72;26.05;95906.38;5009512;28;20502;-70
2022/06/12 10:26:55;;;;;;;1999.90;999.90;;;;;;;29.95;24.68;95890.03;5010656;28;20141;-70
2022/06/12 10:29:24;;;;;;;1999.90;999.90;;;;;;;29.92;24.56;95884.56;5009218;28;20021;-69
2022/06/12 10:32:01;;;;;;;1999.90;999.90;;;;;;;28.48;24.03;95887.13;5010223;28;20029;-70
2022/06/12 10:34:30;;;;;;;1999.90;999.90;;;;;;;28.44;24.16;95889.13;5010431;28;20041;-69
2022/06/12 10:37:08;;;;;;;1999.90;999.90;;;;;;;29.43;22.89;95894.91;5010244;28;20030;-70
2022/06/12 10:39:35;;;;;;;1999.90;999.90;;;;;;;29.66;24.77;95886.06;5010118;28;20057;-70
2022/06/12 10:42:03;;;;;;;1999.90;999.90;;;;;;;29.85;24.63;95888.19;5008731;28;20021;-69
2022/06/12 10:44:31;;;;;;;1999.90;999.90;;;;;;;30.26;23.64;95884.53;5009076;28;20117;-70
2022/06/12 10:47:13;;;;;;;1999.90;999.90;;;;;;;30.56;24.22;95886.44;5009128;28;20014;-69
2022/06/12 10:49:38;;;;;;;1999.90;999.90;;;;;;;30.53;23.79;95885.31;5009270;28;20057;-69
2022/06/12 10:52:07;;;;;;;1999.90;999.90;;;;;;;30.67;22.99;95880.78;5009943;28;20064;-69
2022/06/12 10:54:32;;;;;;;1999.90;999.90;;;;;;;30.63;21.75;95885.56;5008711;28;20036;-70
2022/06/12 10:57:19;;;;;;;1999.90;999.90;;;;;;;30.69;23.96;95878.41;5008954;28;20029;-69
2022/06/12 11:00:05;;;;;;;1999.90;999.90;;;;;;;29.54;20.37;95870.19;5010174;28;20502;-69
2022/06/12 11:02:54;;;;;;;1999.90;999.90;;;;;;;29.21;21.34;95867.75;5008763;28;20021;-69
2022/06/12 11:05:31;;;;;;;1999.90;999.90;;;;;;;29.63;19.70;95864.97;5010100;28;20058;-69
2022/06/12 11:08:31;;;;;;;1999.90;999.90;;;;;;;28.72;19.90;95858.03;5010214;28;20030;-69
2022/06/12 11:11:11;;;;;;;1999.90;999.90;;;;;;;29.77;20.18;95854.59;5008427;28;20466;-71
2022/06/12 11:13:53;;;;;;;1999.90;999.90;;;;;;;29.77;19.51;95849.09;5010108;28;20091;-70
2022/06/12 11:16:34;;;;;;;1999.90;999.90;;;;;;;29.62;20.42;95849.69;5008714;28;20033;-70
2022/06/12 11:19:28;;;;;;;1999.90;999.90;;;;;;;28.40;20.39;95844.56;5008663;28;20033;-70
2022/06/12 11:21:59;;;;;;;1999.90;999.90;;;;;;;29.23;19.77;95839.97;5009326;28;20065;-69
2022/06/12 11:24:44;;;;;;;1999.90;999.90;;;;;;;29.77;20.38;95840.09;5009649;28;20371;-70
2022/06/12 11:27:28;;;;;;;1999.90;999.90;;;;;;;28.44;21.25;95854.31;5009938;28;20629;-70
2022/06/12 11:30:06;;;;;;;1999.90;999.90;;;;;;;29.32;20.63;95842.97;5009848;28;20026;-70
2022/06/12 11:33:04;;;;;;;1999.90;999.90;;;;;;;29.38;21.37;95841.34;5008286;28;20029;-69
2022/06/12 11:35:49;;;;;;;1999.90;999.90;;;;;;;29.09;21.76;95831.88;5008518;28;20030;-69